sensor_id;sensor_type;location;lat;lon;timestamp;pressure;altitude;pressure_sealevel;temperature;humidity
10720;BME280;5411;58.386;15.560;2023-05-09T00:00:19;101510.66;;;11.00;55.53
10720;BME280;5411;58.386;15.560;2023-05-09T00:02:47;101513.34;;;11.00;54.96
10720;BME280;5411;58.386;15.560;2023-05-09T00:05:16;101515.84;;;11.02;55.46
10720;BME280;5411;58.386;15.560;2023-05-09T00:07:44;101517.00;;;10.99;55.61
10720;BME280;5411;58.386;15.560;2023-05-09T00:10:12;101512.84;;;10.97;55.77
10720;BME280;5411;58.386;15.560;2023-05-09T00:12:41;101515.69;;;10.95;55.46
10720;BME280;5411;58.386;15.560;2023-05-09T00:15:10;101522.06;;;10.94;55.57
10720;BME280;5411;58.386;15.560;2023-05-09T00:17:41;101518.91;;;10.91;56.24
10720;BME280;5411;58.386;15.560;2023-05-09T00:20:11;101523.97;;;10.86;56.04
10720;BME280;5411;58.386;15.560;2023-05-09T00:22:40;101526.16;;;10.82;56.00
10720;BME280;5411;58.386;15.560;2023-05-09T00:25:10;101520.28;;;10.79;56.18
10720;BME280;5411;58.386;15.560;2023-05-09T00:27:38;101522.50;;;10.75;56.70
10720;BME280;5411;58.386;15.560;2023-05-09T00:30:07;101517.66;;;10.70;56.56
10720;BME280;5411;58.386;15.560;2023-05-09T00:32:37;101520.88;;;10.66;56.66
10720;BME280;5411;58.386;15.560;2023-05-09T00:35:09;101506.53;;;10.59;56.67
10720;BME280;5411;58.386;15.560;2023-05-09T00:37:38;101520.25;;;10.56;57.24
10720;BME280;5411;58.386;15.560;2023-05-09T00:40:12;101500.06;;;10.45;57.79
10720;BME280;5411;58.386;15.560;2023-05-09T00:42:52;101507.44;;;10.43;57.55
10720;BME280;5411;58.386;15.560;2023-05-09T00:45:21;101513.94;;;10.41;58.15
10720;BME280;5411;58.386;15.560;2023-05-09T00:47:50;101520.84;;;10.35;58.22
10720;BME280;5411;58.386;15.560;2023-05-09T00:50:20;101517.19;;;10.28;58.83
10720;BME280;5411;58.386;15.560;2023-05-09T00:52:48;101518.72;;;10.22;59.06
10720;BME280;5411;58.386;15.560;2023-05-09T00:55:18;101508.16;;;10.13;58.82
10720;BME280;5411;58.386;15.560;2023-05-09T00:57:48;101510.19;;;10.11;59.47
10720;BME280;5411;58.386;15.560;2023-05-09T01:00:17;101514.22;;;10.07;59.48
10720;BME280;5411;58.386;15.560;2023-05-09T01:02:48;101516.91;;;9.98;59.55
10720;BME280;5411;58.386;15.560;2023-05-09T01:05:21;101514.41;;;9.97;60.26
10720;BME280;5411;58.386;15.560;2023-05-09T01:08:00;101513.91;;;9.93;60.82
10720;BME280;5411;58.386;15.560;2023-05-09T01:13:26;101506.91;;;9.84;60.61
10720;BME280;5411;58.386;15.560;2023-05-09T01:16:00;101502.91;;;9.80;60.61
10720;BME280;5411;58.386;15.560;2023-05-09T01:18:41;101497.56;;;9.80;60.53
10720;BME280;5411;58.386;15.560;2023-05-09T01:21:15;101499.88;;;9.75;60.09
10720;BME280;5411;58.386;15.560;2023-05-09T01:23:59;101503.56;;;9.74;60.54
10720;BME280;5411;58.386;15.560;2023-05-09T01:26:43;101503.72;;;9.73;60.51
10720;BME280;5411;58.386;15.560;2023-05-09T01:29:33;101497.06;;;9.69;60.06
10720;BME280;5411;58.386;15.560;2023-05-09T01:32:07;101503.41;;;9.68;60.17
10720;BME280;5411;58.386;15.560;2023-05-09T01:34:37;101502.75;;;9.65;60.24
10720;BME280;5411;58.386;15.560;2023-05-09T01:37:07;101502.41;;;9.60;59.89
10720;BME280;5411;58.386;15.560;2023-05-09T01:39:38;101497.75;;;9.54;60.13
10720;BME280;5411;58.386;15.560;2023-05-09T01:42:10;101499.91;;;9.51;60.50
10720;BME280;5411;58.386;15.560;2023-05-09T01:44:43;101494.75;;;9.41;60.45
10720;BME280;5411;58.386;15.560;2023-05-09T01:47:17;101495.91;;;9.39;60.74
10720;BME280;5411;58.386;15.560;2023-05-09T01:49:46;101501.75;;;9.34;60.78
10720;BME280;5411;58.386;15.560;2023-05-09T01:52:16;101497.25;;;9.26;61.39
10720;BME280;5411;58.386;15.560;2023-05-09T01:54:46;101499.41;;;9.23;61.05
10720;BME280;5411;58.386;15.560;2023-05-09T01:57:19;101492.25;;;9.15;61.13
10720;BME280;5411;58.386;15.560;2023-05-09T01:59:51;101494.22;;;9.13;60.51
10720;BME280;5411;58.386;15.560;2023-05-09T02:02:20;101511.25;;;9.12;61.50
10720;BME280;5411;58.386;15.560;2023-05-09T02:04:49;101495.03;;;9.06;61.08
10720;BME280;5411;58.386;15.560;2023-05-09T02:07:19;101501.72;;;9.02;61.33
10720;BME280;5411;58.386;15.560;2023-05-09T02:09:49;101502.22;;;8.97;62.08
10720;BME280;5411;58.386;15.560;2023-05-09T02:12:19;101501.22;;;8.90;61.58
10720;BME280;5411;58.386;15.560;2023-05-09T02:14:48;101504.34;;;8.85;61.55
10720;BME280;5411;58.386;15.560;2023-05-09T02:17:18;101511.00;;;8.81;62.56
10720;BME280;5411;58.386;15.560;2023-05-09T02:19:47;101513.19;;;8.78;62.33
10720;BME280;5411;58.386;15.560;2023-05-09T02:22:15;101518.16;;;8.73;62.53
10720;BME280;5411;58.386;15.560;2023-05-09T02:24:44;101510.47;;;8.62;62.99
10720;BME280;5411;58.386;15.560;2023-05-09T02:27:13;101514.13;;;8.61;63.50
10720;BME280;5411;58.386;15.560;2023-05-09T02:29:47;101505.91;;;8.54;62.87
10720;BME280;5411;58.386;15.560;2023-05-09T02:32:22;101510.59;;;8.52;63.69
10720;BME280;5411;58.386;15.560;2023-05-09T02:34:52;101514.59;;;8.48;63.62
10720;BME280;5411;58.386;15.560;2023-05-09T02:37:22;101507.06;;;8.43;64.24
10720;BME280;5411;58.386;15.560;2023-05-09T02:39:51;101513.38;;;8.42;63.86
10720;BME280;5411;58.386;15.560;2023-05-09T02:42:23;101505.69;;;8.39;63.48
10720;BME280;5411;58.386;15.560;2023-05-09T02:44:52;101507.38;;;8.40;64.20
10720;BME280;5411;58.386;15.560;2023-05-09T02:47:22;101508.72;;;8.36;64.04
10720;BME280;5411;58.386;15.560;2023-05-09T02:49:51;101506.63;;;8.30;64.50
10720;BME280;5411;58.386;15.560;2023-05-09T02:52:20;101514.34;;;8.33;63.89
10720;BME280;5411;58.386;15.560;2023-05-09T02:54:48;101496.28;;;8.27;64.90
10720;BME280;5411;58.386;15.560;2023-05-09T02:57:16;101500.03;;;8.34;65.13
10720;BME280;5411;58.386;15.560;2023-05-09T02:59:45;101499.34;;;8.32;65.37
10720;BME280;5411;58.386;15.560;2023-05-09T03:02:13;101489.78;;;8.30;64.91
10720;BME280;5411;58.386;15.560;2023-05-09T03:04:43;101501.72;;;8.43;64.37
10720;BME280;5411;58.386;15.560;2023-05-09T03:07:12;101503.94;;;8.56;64.39
10720;BME280;5411;58.386;15.560;2023-05-09T03:09:41;101498.97;;;8.69;63.73
10720;BME280;5411;58.386;15.560;2023-05-09T03:12:09;101502.31;;;8.79;63.97
10720;BME280;5411;58.386;15.560;2023-05-09T03:14:38;101507.72;;;8.87;63.85
10720;BME280;5411;58.386;15.560;2023-05-09T03:17:06;101497.88;;;8.96;63.20
10720;BME280;5411;58.386;15.560;2023-05-09T03:19:34;101488.91;;;9.05;62.73
10720;BME280;5411;58.386;15.560;2023-05-09T03:22:04;101490.72;;;9.13;62.94
10720;BME280;5411;58.386;15.560;2023-05-09T03:24:33;101486.72;;;9.25;62.41
10720;BME280;5411;58.386;15.560;2023-05-09T03:27:03;101483.41;;;9.31;61.87
10720;BME280;5411;58.386;15.560;2023-05-09T03:29:32;101482.22;;;9.42;61.97
10720;BME280;5411;58.386;15.560;2023-05-09T03:32:01;101494.91;;;9.48;62.17
10720;BME280;5411;58.386;15.560;2023-05-09T03:34:29;101487.41;;;9.51;61.95
10720;BME280;5411;58.386;15.560;2023-05-09T03:36:58;101478.22;;;9.54;61.87
10720;BME280;5411;58.386;15.560;2023-05-09T03:39:27;101486.53;;;9.59;61.74
10720;BME280;5411;58.386;15.560;2023-05-09T03:41:56;101483.53;;;9.62;61.19
10720;BME280;5411;58.386;15.560;2023-05-09T03:44:24;101486.03;;;9.63;61.47
10720;BME280;5411;58.386;15.560;2023-05-09T03:46:53;101478.69;;;9.65;61.31
10720;BME280;5411;58.386;15.560;2023-05-09T03:49:21;101483.72;;;9.69;61.41
10720;BME280;5411;58.386;15.560;2023-05-09T03:51:50;101481.72;;;9.71;61.56
10720;BME280;5411;58.386;15.560;2023-05-09T03:54:18;101484.56;;;9.69;61.95
10720;BME280;5411;58.386;15.560;2023-05-09T03:56:48;101481.50;;;9.72;62.03
10720;BME280;5411;58.386;15.560;2023-05-09T03:59:17;101485.03;;;9.73;61.49
10720;BME280;5411;58.386;15.560;2023-05-09T04:01:46;101478.69;;;9.74;61.42
10720;BME280;5411;58.386;15.560;2023-05-09T04:04:15;101475.00;;;9.75;61.49
10720;BME280;5411;58.386;15.560;2023-05-09T04:06:43;101479.19;;;9.77;61.51
10720;BME280;5411;58.386;15.560;2023-05-09T04:09:11;101479.00;;;9.79;61.19
10720;BME280;5411;58.386;15.560;2023-05-09T04:11:40;101485.88;;;9.81;61.55
10720;BME280;5411;58.386;15.560;2023-05-09T04:14:10;101484.31;;;9.87;61.47
10720;BME280;5411;58.386;15.560;2023-05-09T04:16:38;101488.69;;;9.88;61.61
10720;BME280;5411;58.386;15.560;2023-05-09T04:19:07;101484.00;;;9.90;61.16
10720;BME280;5411;58.386;15.560;2023-05-09T04:21:35;101487.84;;;9.95;61.81
10720;BME280;5411;58.386;15.560;2023-05-09T04:24:03;101492.66;;;10.00;61.39
10720;BME280;5411;58.386;15.560;2023-05-09T04:26:32;101489.66;;;10.03;61.31
10720;BME280;5411;58.386;15.560;2023-05-09T04:29:04;101486.63;;;10.06;61.14
10720;BME280;5411;58.386;15.560;2023-05-09T04:31:34;101482.44;;;10.12;61.03
10720;BME280;5411;58.386;15.560;2023-05-09T04:34:03;101476.41;;;10.18;60.62
10720;BME280;5411;58.386;15.560;2023-05-09T04:36:31;101483.56;;;10.25;60.34
10720;BME280;5411;58.386;15.560;2023-05-09T04:38:59;101486.41;;;10.32;59.94
10720;BME280;5411;58.386;15.560;2023-05-09T04:41:31;101475.50;;;10.42;59.63
10720;BME280;5411;58.386;15.560;2023-05-09T04:44:00;101481.00;;;10.48;59.23
10720;BME280;5411;58.386;15.560;2023-05-09T04:46:29;101475.59;;;10.56;58.96
10720;BME280;5411;58.386;15.560;2023-05-09T04:48:58;101475.56;;;10.64;57.79
10720;BME280;5411;58.386;15.560;2023-05-09T04:51:27;101479.19;;;10.71;57.28
10720;BME280;5411;58.386;15.560;2023-05-09T04:53:55;101472.50;;;10.76;56.43
10720;BME280;5411;58.386;15.560;2023-05-09T04:56:23;101476.78;;;10.85;56.71
10720;BME280;5411;58.386;15.560;2023-05-09T04:58:52;101473.84;;;10.94;57.13
10720;BME280;5411;58.386;15.560;2023-05-09T05:01:20;101472.25;;;11.08;56.25
10720;BME280;5411;58.386;15.560;2023-05-09T05:03:49;101467.97;;;11.22;55.81
10720;BME280;5411;58.386;15.560;2023-05-09T05:06:18;101469.38;;;11.32;55.75
10720;BME280;5411;58.386;15.560;2023-05-09T05:08:47;101479.88;;;11.42;54.29
10720;BME280;5411;58.386;15.560;2023-05-09T05:11:15;101467.03;;;11.52;54.85
10720;BME280;5411;58.386;15.560;2023-05-09T05:13:44;101472.13;;;11.62;54.33
10720;BME280;5411;58.386;15.560;2023-05-09T05:16:12;101472.69;;;11.72;54.64
10720;BME280;5411;58.386;15.560;2023-05-09T05:18:41;101464.25;;;11.83;53.71
10720;BME280;5411;58.386;15.560;2023-05-09T05:21:10;101467.03;;;11.90;53.24
10720;BME280;5411;58.386;15.560;2023-05-09T05:23:45;101465.56;;;12.02;52.41
10720;BME280;5411;58.386;15.560;2023-05-09T05:26:14;101463.63;;;12.10;52.30
10720;BME280;5411;58.386;15.560;2023-05-09T05:28:42;101462.88;;;12.17;52.37
10720;BME280;5411;58.386;15.560;2023-05-09T05:31:10;101459.06;;;12.26;51.72
10720;BME280;5411;58.386;15.560;2023-05-09T05:33:39;101460.28;;;12.38;51.19
10720;BME280;5411;58.386;15.560;2023-05-09T05:36:07;101459.97;;;12.47;50.54
10720;BME280;5411;58.386;15.560;2023-05-09T05:38:35;101455.97;;;12.58;50.70
10720;BME280;5411;58.386;15.560;2023-05-09T05:41:05;101456.50;;;12.68;49.86
10720;BME280;5411;58.386;15.560;2023-05-09T05:43:38;101449.34;;;12.75;50.01
10720;BME280;5411;58.386;15.560;2023-05-09T05:46:06;101442.00;;;12.84;50.17
10720;BME280;5411;58.386;15.560;2023-05-09T05:48:34;101442.13;;;12.97;50.32
10720;BME280;5411;58.386;15.560;2023-05-09T05:51:03;101438.94;;;13.08;49.59
10720;BME280;5411;58.386;15.560;2023-05-09T05:53:31;101430.19;;;13.21;49.28
10720;BME280;5411;58.386;15.560;2023-05-09T05:55:59;101424.09;;;13.34;49.71
10720;BME280;5411;58.386;15.560;2023-05-09T05:58:29;101433.50;;;13.44;49.25
10720;BME280;5411;58.386;15.560;2023-05-09T06:00:57;101421.19;;;13.57;49.19
10720;BME280;5411;58.386;15.560;2023-05-09T06:03:25;101426.66;;;13.70;48.56
10720;BME280;5411;58.386;15.560;2023-05-09T06:05:54;101418.88;;;13.88;48.68
10720;BME280;5411;58.386;15.560;2023-05-09T06:08:22;101413.16;;;14.04;48.12
10720;BME280;5411;58.386;15.560;2023-05-09T06:10:51;101415.72;;;14.19;47.55
10720;BME280;5411;58.386;15.560;2023-05-09T06:13:19;101416.63;;;14.33;47.47
10720;BME280;5411;58.386;15.560;2023-05-09T06:15:49;101401.97;;;14.42;47.21
10720;BME280;5411;58.386;15.560;2023-05-09T06:18:17;101403.66;;;14.49;46.44
10720;BME280;5411;58.386;15.560;2023-05-09T06:20:46;101401.84;;;14.63;46.95
10720;BME280;5411;58.386;15.560;2023-05-09T06:23:14;101396.03;;;14.79;46.01
10720;BME280;5411;58.386;15.560;2023-05-09T06:25:48;101400.41;;;14.93;45.49
10720;BME280;5411;58.386;15.560;2023-05-09T06:28:16;101397.72;;;15.07;45.88
10720;BME280;5411;58.386;15.560;2023-05-09T06:30:44;101397.13;;;15.18;43.39
10720;BME280;5411;58.386;15.560;2023-05-09T06:33:14;101396.50;;;15.29;43.77
10720;BME280;5411;58.386;15.560;2023-05-09T06:35:42;101393.38;;;15.39;42.52
10720;BME280;5411;58.386;15.560;2023-05-09T06:38:11;101393.97;;;15.47;42.21
10720;BME280;5411;58.386;15.560;2023-05-09T06:40:39;101386.72;;;15.54;42.54
10720;BME280;5411;58.386;15.560;2023-05-09T06:43:07;101390.88;;;15.63;42.35
10720;BME280;5411;58.386;15.560;2023-05-09T06:45:36;101384.84;;;15.75;42.49
10720;BME280;5411;58.386;15.560;2023-05-09T06:48:05;101384.63;;;15.83;41.88
10720;BME280;5411;58.386;15.560;2023-05-09T06:50:35;101392.06;;;15.94;41.68
10720;BME280;5411;58.386;15.560;2023-05-09T06:53:03;101382.47;;;16.04;42.19
10720;BME280;5411;58.386;15.560;2023-05-09T06:55:31;101373.91;;;16.14;41.31
10720;BME280;5411;58.386;15.560;2023-05-09T06:58:00;101369.09;;;16.23;41.14
10720;BME280;5411;58.386;15.560;2023-05-09T07:00:28;101372.81;;;16.28;40.39
10720;BME280;5411;58.386;15.560;2023-05-09T07:02:57;101364.69;;;16.35;41.02
10720;BME280;5411;58.386;15.560;2023-05-09T07:05:25;101363.38;;;16.44;40.77
10720;BME280;5411;58.386;15.560;2023-05-09T07:07:55;101359.16;;;16.55;40.86
10720;BME280;5411;58.386;15.560;2023-05-09T07:10:23;101353.69;;;16.68;40.88
10720;BME280;5411;58.386;15.560;2023-05-09T07:12:52;101360.72;;;16.76;40.29
10720;BME280;5411;58.386;15.560;2023-05-09T07:15:20;101357.91;;;16.89;41.31
10720;BME280;5411;58.386;15.560;2023-05-09T07:18:06;101349.47;;;17.03;40.57
10720;BME280;5411;58.386;15.560;2023-05-09T07:20:35;101349.41;;;17.10;40.41
10720;BME280;5411;58.386;15.560;2023-05-09T07:23:05;101346.19;;;17.20;40.22
10720;BME280;5411;58.386;15.560;2023-05-09T07:25:33;101344.88;;;17.29;40.12
10720;BME280;5411;58.386;15.560;2023-05-09T07:28:01;101344.19;;;17.33;40.01
10720;BME280;5411;58.386;15.560;2023-05-09T07:30:29;101333.72;;;17.43;40.33
10720;BME280;5411;58.386;15.560;2023-05-09T07:33:00;101336.72;;;17.54;39.83
10720;BME280;5411;58.386;15.560;2023-05-09T07:35:33;101327.06;;;17.64;39.45
10720;BME280;5411;58.386;15.560;2023-05-09T07:38:02;101324.63;;;17.74;39.89
10720;BME280;5411;58.386;15.560;2023-05-09T07:40:33;101322.59;;;17.88;39.68
10720;BME280;5411;58.386;15.560;2023-05-09T07:43:03;101316.41;;;17.99;39.15
10720;BME280;5411;58.386;15.560;2023-05-09T07:45:31;101313.41;;;18.07;40.11
10720;BME280;5411;58.386;15.560;2023-05-09T07:48:00;101317.28;;;18.11;39.35
10720;BME280;5411;58.386;15.560;2023-05-09T07:50:29;101315.34;;;18.19;39.75
10720;BME280;5411;58.386;15.560;2023-05-09T07:52:57;101301.22;;;18.28;39.75
10720;BME280;5411;58.386;15.560;2023-05-09T07:55:26;101299.88;;;18.37;39.32
10720;BME280;5411;58.386;15.560;2023-05-09T07:58:10;101296.34;;;18.48;38.85
10720;BME280;5411;58.386;15.560;2023-05-09T08:00:38;101303.72;;;18.60;38.27
10720;BME280;5411;58.386;15.560;2023-05-09T08:03:07;101295.94;;;18.63;38.74
10720;BME280;5411;58.386;15.560;2023-05-09T08:05:39;101288.53;;;18.70;38.30
10720;BME280;5411;58.386;15.560;2023-05-09T08:08:07;101285.81;;;18.82;38.17
10720;BME280;5411;58.386;15.560;2023-05-09T08:10:36;101289.59;;;18.93;37.63
10720;BME280;5411;58.386;15.560;2023-05-09T08:13:11;101286.66;;;19.06;37.59
10720;BME280;5411;58.386;15.560;2023-05-09T08:15:40;101278.28;;;19.19;36.65
10720;BME280;5411;58.386;15.560;2023-05-09T08:18:09;101283.00;;;19.23;37.10
10720;BME280;5411;58.386;15.560;2023-05-09T08:20:38;101272.50;;;19.27;35.76
10720;BME280;5411;58.386;15.560;2023-05-09T08:23:06;101265.28;;;19.21;35.52
10720;BME280;5411;58.386;15.560;2023-05-09T08:25:35;101270.84;;;19.26;35.84
10720;BME280;5411;58.386;15.560;2023-05-09T08:28:04;101261.28;;;19.23;35.82
10720;BME280;5411;58.386;15.560;2023-05-09T08:30:34;101270.97;;;19.19;35.84
10720;BME280;5411;58.386;15.560;2023-05-09T08:33:02;101267.78;;;19.22;35.32
10720;BME280;5411;58.386;15.560;2023-05-09T08:35:31;101261.53;;;19.22;35.95
10720;BME280;5411;58.386;15.560;2023-05-09T08:38:02;101257.16;;;19.21;35.84
10720;BME280;5411;58.386;15.560;2023-05-09T08:40:34;101260.22;;;19.25;34.89
10720;BME280;5411;58.386;15.560;2023-05-09T08:43:05;101252.09;;;19.25;35.27
10720;BME280;5411;58.386;15.560;2023-05-09T08:45:41;101250.56;;;19.29;35.22
10720;BME280;5411;58.386;15.560;2023-05-09T08:48:13;101240.28;;;19.31;34.60
10720;BME280;5411;58.386;15.560;2023-05-09T08:50:43;101242.66;;;19.27;34.62
10720;BME280;5411;58.386;15.560;2023-05-09T08:53:11;101238.63;;;19.30;35.21
10720;BME280;5411;58.386;15.560;2023-05-09T08:55:40;101240.25;;;19.42;34.81
10720;BME280;5411;58.386;15.560;2023-05-09T08:58:09;101232.00;;;19.49;35.34
10720;BME280;5411;58.386;15.560;2023-05-09T09:00:40;101233.13;;;19.65;35.52
10720;BME280;5411;58.386;15.560;2023-05-09T09:03:09;101233.34;;;19.75;34.82
10720;BME280;5411;58.386;15.560;2023-05-09T09:05:41;101226.94;;;19.81;35.60
10720;BME280;5411;58.386;15.560;2023-05-09T09:08:09;101222.81;;;19.78;34.52
10720;BME280;5411;58.386;15.560;2023-05-09T09:10:39;101221.59;;;19.86;34.99
10720;BME280;5411;58.386;15.560;2023-05-09T09:13:09;101217.19;;;19.97;36.15
10720;BME280;5411;58.386;15.560;2023-05-09T09:15:43;101203.31;;;20.10;34.87
10720;BME280;5411;58.386;15.560;2023-05-09T09:18:17;101202.91;;;20.18;34.33
10720;BME280;5411;58.386;15.560;2023-05-09T09:20:48;101196.47;;;20.24;34.42
10720;BME280;5411;58.386;15.560;2023-05-09T09:23:19;101194.91;;;20.28;33.79
10720;BME280;5411;58.386;15.560;2023-05-09T09:25:47;101190.00;;;20.42;33.59
10720;BME280;5411;58.386;15.560;2023-05-09T09:28:16;101190.56;;;20.44;33.09
10720;BME280;5411;58.386;15.560;2023-05-09T09:30:46;101189.41;;;20.56;33.16
10720;BME280;5411;58.386;15.560;2023-05-09T09:33:18;101193.34;;;20.66;33.43
10720;BME280;5411;58.386;15.560;2023-05-09T09:35:48;101191.22;;;20.68;31.89
10720;BME280;5411;58.386;15.560;2023-05-09T09:38:23;101184.94;;;20.67;32.56
10720;BME280;5411;58.386;15.560;2023-05-09T09:40:53;101189.47;;;20.78;32.57
10720;BME280;5411;58.386;15.560;2023-05-09T09:43:27;101194.06;;;20.78;30.82
10720;BME280;5411;58.386;15.560;2023-05-09T09:46:00;101188.50;;;20.68;30.25
10720;BME280;5411;58.386;15.560;2023-05-09T09:48:30;101187.44;;;20.69;30.90
10720;BME280;5411;58.386;15.560;2023-05-09T09:51:04;101187.66;;;20.67;29.90
10720;BME280;5411;58.386;15.560;2023-05-09T09:53:39;101189.31;;;20.68;31.22
10720;BME280;5411;58.386;15.560;2023-05-09T09:56:08;101183.53;;;20.64;31.43
10720;BME280;5411;58.386;15.560;2023-05-09T09:58:37;101172.50;;;20.71;31.77
10720;BME280;5411;58.386;15.560;2023-05-09T10:01:07;101176.88;;;20.72;30.18
10720;BME280;5411;58.386;15.560;2023-05-09T10:03:37;101176.63;;;20.74;30.53
10720;BME280;5411;58.386;15.560;2023-05-09T10:06:08;101166.56;;;20.74;30.41
10720;BME280;5411;58.386;15.560;2023-05-09T10:08:38;101168.28;;;20.80;31.17
10720;BME280;5411;58.386;15.560;2023-05-09T10:11:08;101165.06;;;20.83;30.77
10720;BME280;5411;58.386;15.560;2023-05-09T10:13:39;101166.72;;;20.84;30.88
10720;BME280;5411;58.386;15.560;2023-05-09T10:16:10;101163.78;;;20.91;31.11
10720;BME280;5411;58.386;15.560;2023-05-09T10:18:45;101153.47;;;20.93;30.14
10720;BME280;5411;58.386;15.560;2023-05-09T10:21:14;101151.84;;;20.92;29.61
10720;BME280;5411;58.386;15.560;2023-05-09T10:23:45;101145.31;;;20.93;30.47
10720;BME280;5411;58.386;15.560;2023-05-09T10:26:17;101143.19;;;20.95;30.47
10720;BME280;5411;58.386;15.560;2023-05-09T10:28:54;101145.31;;;20.93;30.19
10720;BME280;5411;58.386;15.560;2023-05-09T10:31:26;101147.06;;;20.99;30.92
10720;BME280;5411;58.386;15.560;2023-05-09T10:33:55;101131.34;;;21.06;30.22
10720;BME280;5411;58.386;15.560;2023-05-09T10:36:24;101139.34;;;21.13;31.20
10720;BME280;5411;58.386;15.560;2023-05-09T10:38:54;101132.56;;;21.15;31.08
10720;BME280;5411;58.386;15.560;2023-05-09T10:41:22;101132.38;;;21.22;31.52
10720;BME280;5411;58.386;15.560;2023-05-09T10:43:54;101139.81;;;21.26;31.09
10720;BME280;5411;58.386;15.560;2023-05-09T10:46:25;101131.69;;;21.31;29.66
10720;BME280;5411;58.386;15.560;2023-05-09T10:48:54;101120.59;;;21.38;30.04
10720;BME280;5411;58.386;15.560;2023-05-09T10:51:23;101104.84;;;21.40;28.93
10720;BME280;5411;58.386;15.560;2023-05-09T10:53:51;101110.06;;;21.47;28.89
10720;BME280;5411;58.386;15.560;2023-05-09T10:56:22;101101.69;;;21.53;30.03
10720;BME280;5411;58.386;15.560;2023-05-09T10:58:52;101108.00;;;21.59;27.66
10720;BME280;5411;58.386;15.560;2023-05-09T11:01:34;101093.38;;;21.65;27.47
10720;BME280;5411;58.386;15.560;2023-05-09T11:04:08;101105.75;;;21.78;28.14
10720;BME280;5411;58.386;15.560;2023-05-09T11:06:43;101095.19;;;21.86;27.76
10720;BME280;5411;58.386;15.560;2023-05-09T11:09:40;101089.78;;;21.91;27.26
10720;BME280;5411;58.386;15.560;2023-05-09T11:12:10;101099.34;;;21.94;26.52
10720;BME280;5411;58.386;15.560;2023-05-09T11:14:41;101091.69;;;21.91;27.24
10720;BME280;5411;58.386;15.560;2023-05-09T11:17:12;101084.91;;;21.93;26.61
10720;BME280;5411;58.386;15.560;2023-05-09T11:20:02;101095.81;;;21.98;27.92
10720;BME280;5411;58.386;15.560;2023-05-09T11:22:38;101090.50;;;22.09;28.14
10720;BME280;5411;58.386;15.560;2023-05-09T11:25:08;101087.53;;;22.15;27.37
10720;BME280;5411;58.386;15.560;2023-05-09T11:27:41;101088.97;;;22.23;27.02
10720;BME280;5411;58.386;15.560;2023-05-09T11:30:11;101076.44;;;22.27;27.10
10720;BME280;5411;58.386;15.560;2023-05-09T11:32:46;101072.06;;;22.26;26.72
10720;BME280;5411;58.386;15.560;2023-05-09T11:35:16;101051.91;;;22.27;26.55
10720;BME280;5411;58.386;15.560;2023-05-09T11:37:47;101058.44;;;22.21;25.50
10720;BME280;5411;58.386;15.560;2023-05-09T11:40:16;101061.16;;;22.21;24.99
10720;BME280;5411;58.386;15.560;2023-05-09T11:42:46;101051.59;;;22.18;25.53
10720;BME280;5411;58.386;15.560;2023-05-09T11:45:18;101057.34;;;22.22;25.50
10720;BME280;5411;58.386;15.560;2023-05-09T11:47:49;101046.44;;;22.27;25.62
10720;BME280;5411;58.386;15.560;2023-05-09T11:50:19;101051.69;;;22.33;25.71
10720;BME280;5411;58.386;15.560;2023-05-09T11:52:48;101050.34;;;22.41;24.63
10720;BME280;5411;58.386;15.560;2023-05-09T11:55:19;101037.28;;;22.43;24.78
10720;BME280;5411;58.386;15.560;2023-05-09T11:57:49;101039.47;;;22.46;24.27
10720;BME280;5411;58.386;15.560;2023-05-09T12:00:20;101032.13;;;22.52;25.34
10720;BME280;5411;58.386;15.560;2023-05-09T12:02:50;101033.25;;;22.56;24.67
10720;BME280;5411;58.386;15.560;2023-05-09T12:05:20;101032.41;;;22.55;24.28
10720;BME280;5411;58.386;15.560;2023-05-09T12:07:49;101024.22;;;22.50;24.65
10720;BME280;5411;58.386;15.560;2023-05-09T12:10:19;101024.53;;;22.59;24.90
10720;BME280;5411;58.386;15.560;2023-05-09T12:12:52;101022.09;;;22.67;24.11
10720;BME280;5411;58.386;15.560;2023-05-09T12:15:22;101018.59;;;22.72;24.08
10720;BME280;5411;58.386;15.560;2023-05-09T12:18:02;101018.84;;;22.70;23.96
10720;BME280;5411;58.386;15.560;2023-05-09T12:20:41;101018.28;;;22.63;24.06
10720;BME280;5411;58.386;15.560;2023-05-09T12:23:10;101003.53;;;22.59;23.60
10720;BME280;5411;58.386;15.560;2023-05-09T12:25:46;101002.44;;;22.65;24.54
10720;BME280;5411;58.386;15.560;2023-05-09T12:28:14;100997.31;;;22.74;24.65
10720;BME280;5411;58.386;15.560;2023-05-09T12:30:43;100996.56;;;22.84;25.18
10720;BME280;5411;58.386;15.560;2023-05-09T12:33:13;100996.00;;;22.92;25.02
10720;BME280;5411;58.386;15.560;2023-05-09T12:35:44;100991.41;;;22.97;23.98
10720;BME280;5411;58.386;15.560;2023-05-09T12:38:13;100978.03;;;22.96;23.82
10720;BME280;5411;58.386;15.560;2023-05-09T12:40:46;100988.94;;;22.96;24.44
10720;BME280;5411;58.386;15.560;2023-05-09T12:43:16;100980.75;;;22.96;22.99
10720;BME280;5411;58.386;15.560;2023-05-09T12:45:44;100993.31;;;22.97;23.15
10720;BME280;5411;58.386;15.560;2023-05-09T12:48:14;100985.97;;;23.02;24.02
10720;BME280;5411;58.386;15.560;2023-05-09T12:50:46;100987.88;;;23.07;23.36
10720;BME280;5411;58.386;15.560;2023-05-09T12:53:30;100981.59;;;23.01;23.45
10720;BME280;5411;58.386;15.560;2023-05-09T12:56:02;100982.16;;;23.03;23.52
10720;BME280;5411;58.386;15.560;2023-05-09T12:58:31;100978.84;;;23.06;23.85
10720;BME280;5411;58.386;15.560;2023-05-09T13:01:02;100973.13;;;23.08;24.04
10720;BME280;5411;58.386;15.560;2023-05-09T13:03:32;100969.31;;;23.14;24.01
10720;BME280;5411;58.386;15.560;2023-05-09T13:06:09;100972.31;;;23.07;23.25
10720;BME280;5411;58.386;15.560;2023-05-09T13:08:39;100968.75;;;23.02;23.20
10720;BME280;5411;58.386;15.560;2023-05-09T13:11:12;100961.91;;;23.04;23.57